createdAt,value
2023-04-19T00:02:26.097Z,94.67
2023-04-19T00:04:55.824Z,94.84
2023-04-19T00:07:24.190Z,94.88
2023-04-19T00:09:52.091Z,94.83
2023-04-19T00:12:19.998Z,95.05
2023-04-19T00:14:48.024Z,95.17
2023-04-19T00:17:15.868Z,95.29
2023-04-19T00:19:44.627Z,95.38
2023-04-19T00:22:12.752Z,95.36
2023-04-19T00:24:40.881Z,95.32
2023-04-19T00:27:08.706Z,95.42
2023-04-19T00:29:37.062Z,95.83
2023-04-19T00:32:06.693Z,96.15
2023-04-19T00:34:34.841Z,96.31
2023-04-19T00:37:04.716Z,96.47
2023-04-19T00:39:33.953Z,96.49
2023-04-19T00:42:02.454Z,96.52
2023-04-19T00:44:30.282Z,96.34
2023-04-19T00:46:58.300Z,96.41
2023-04-19T00:49:26.126Z,96.33
2023-04-19T00:51:54.204Z,96.37
2023-04-19T00:54:22.498Z,96.41
2023-04-19T00:56:50.873Z,96.33
2023-04-19T00:59:19.138Z,96.29
2023-04-19T01:01:47.100Z,96.29
2023-04-19T01:04:16.114Z,96.19
2023-04-19T01:06:44.499Z,96.08
2023-04-19T01:09:12.766Z,95.94
2023-04-19T01:11:43.461Z,95.95
2023-04-19T01:14:11.665Z,95.89
2023-04-19T01:16:39.628Z,95.71
2023-04-19T01:19:07.492Z,95.82
2023-04-19T01:21:40.375Z,95.69
2023-04-19T01:24:08.283Z,95.31
2023-04-19T01:26:36.213Z,95.12
2023-04-19T01:29:04.400Z,94.92
2023-04-19T01:31:32.585Z,94.76
2023-04-19T01:34:00.815Z,94.37
2023-04-19T01:36:29.020Z,93.98
2023-04-19T01:38:57.193Z,93.88
2023-04-19T01:41:27.253Z,93.64
2023-04-19T01:43:55.246Z,93.39
2023-04-19T01:46:23.190Z,93.09
2023-04-19T01:48:52.684Z,92.77
2023-04-19T01:51:22.242Z,92.58
2023-04-19T01:53:53.657Z,92.40
2023-04-19T01:56:24.430Z,92.11
2023-04-19T01:58:52.306Z,91.95
2023-04-19T02:01:20.813Z,91.78
2023-04-19T02:03:49.341Z,91.76
2023-04-19T02:06:17.444Z,91.56
2023-04-19T02:08:45.628Z,91.49
2023-04-19T02:11:17.178Z,91.39
2023-04-19T02:13:45.039Z,91.35
2023-04-19T02:16:13.074Z,91.54
2023-04-19T02:18:41.707Z,91.53
2023-04-19T02:21:09.951Z,91.27
2023-04-19T02:23:37.836Z,91.04
2023-04-19T02:26:05.998Z,90.97
2023-04-19T02:28:34.243Z,91.03
2023-04-19T02:31:04.922Z,90.99
2023-04-19T02:33:37.941Z,90.89
2023-04-19T02:36:06.492Z,91.10
2023-04-19T02:38:34.772Z,91.20
2023-04-19T02:41:04.519Z,91.21
2023-04-19T02:43:32.484Z,91.30
2023-04-19T02:46:01.462Z,91.40
2023-04-19T02:48:29.498Z,91.42
2023-04-19T02:50:57.566Z,91.52
2023-04-19T02:53:25.866Z,91.59
2023-04-19T02:55:53.898Z,91.75
2023-04-19T02:58:22.295Z,91.66
2023-04-19T03:01:00.706Z,91.80
2023-04-19T03:03:29.150Z,91.85
2023-04-19T03:05:57.885Z,92.03
2023-04-19T03:08:25.890Z,92.16
2023-04-19T03:10:53.705Z,92.35
2023-04-19T03:13:23.213Z,92.29
2023-04-19T03:15:51.330Z,92.34
2023-04-19T03:18:21.833Z,92.43
2023-04-19T03:20:49.780Z,92.50
2023-04-19T03:23:17.850Z,92.71
2023-04-19T03:25:46.439Z,92.71
2023-04-19T03:28:25.048Z,92.95
2023-04-19T03:31:11.493Z,93.06
2023-04-19T03:33:40.398Z,93.15
2023-04-19T03:36:09.008Z,93.45
2023-04-19T03:38:37.550Z,93.73
2023-04-19T03:41:20.329Z,93.66
2023-04-19T03:45:09.240Z,93.28
2023-04-19T03:47:40.932Z,93.14
2023-04-19T03:50:09.948Z,93.27
2023-04-19T03:52:38.803Z,93.12
2023-04-19T03:55:07.500Z,93.08
2023-04-19T03:57:38.285Z,92.87
2023-04-19T04:00:13.543Z,92.24
2023-04-19T04:02:44.531Z,91.59
2023-04-19T04:05:13.145Z,90.98
2023-04-19T04:07:41.325Z,90.13
2023-04-19T04:10:09.763Z,89.09
2023-04-19T04:12:41.952Z,87.74
2023-04-19T04:15:11.287Z,86.43
2023-04-19T04:17:43.303Z,84.63
2023-04-19T04:20:13.588Z,82.92
2023-04-19T04:22:46.850Z,80.37
2023-04-19T04:25:16.089Z,77.67
2023-04-19T04:27:44.338Z,74.74
2023-04-19T04:30:14.969Z,72.48
2023-04-19T04:32:43.367Z,70.60
2023-04-19T04:35:12.255Z,68.89
2023-04-19T04:37:44.280Z,66.90
2023-04-19T04:40:12.372Z,65.61
2023-04-19T04:42:41.018Z,65.51
2023-04-19T04:45:10.942Z,63.69
2023-04-19T04:47:39.060Z,60.89
2023-04-19T04:50:08.098Z,58.53
2023-04-19T04:52:36.591Z,57.52
2023-04-19T04:55:11.138Z,55.54
2023-04-19T04:57:43.179Z,54.48
2023-04-19T05:00:16.674Z,54.58
2023-04-19T05:02:55.064Z,54.79
2023-04-19T05:05:24.287Z,55.25
2023-04-19T05:07:52.246Z,55.23
2023-04-19T05:10:21.282Z,55.70
2023-04-19T05:12:49.519Z,55.48
2023-04-19T05:15:18.457Z,55.37
2023-04-19T05:17:50.639Z,55.55
2023-04-19T05:20:19.944Z,55.12
2023-04-19T05:22:48.765Z,54.63
2023-04-19T05:25:16.929Z,54.19
2023-04-19T05:27:45.023Z,54.04
2023-04-19T05:30:13.804Z,53.53
2023-04-19T05:32:43.760Z,52.74
2023-04-19T05:35:12.744Z,52.69
2023-04-19T05:37:41.753Z,52.55
2023-04-19T05:40:10.438Z,52.82
2023-04-19T05:42:38.705Z,52.90
2023-04-19T05:45:07.525Z,52.80
2023-04-19T05:47:35.660Z,51.69
2023-04-19T05:50:20.698Z,51.05
2023-04-19T05:53:07.141Z,50.28
2023-04-19T05:55:35.698Z,47.97
2023-04-19T05:58:03.814Z,45.73
2023-04-19T06:00:32.685Z,44.77
2023-04-19T06:03:04.232Z,44.15
2023-04-19T06:05:33.226Z,44.06
2023-04-19T06:08:02.727Z,43.14
2023-04-19T06:10:44.364Z,41.99
2023-04-19T06:13:20.237Z,39.50
2023-04-19T06:15:48.744Z,39.51
2023-04-19T06:18:19.613Z,39.41
2023-04-19T06:20:48.273Z,38.52
2023-04-19T06:23:18.702Z,38.04
2023-04-19T06:25:48.995Z,38.18
2023-04-19T06:28:17.201Z,38.34
2023-04-19T06:30:45.832Z,38.42
2023-04-19T06:33:13.742Z,38.57
2023-04-19T06:35:41.585Z,38.49
2023-04-19T06:38:09.548Z,38.19
2023-04-19T06:40:37.446Z,38.00
2023-04-19T06:43:05.908Z,38.92
2023-04-19T06:45:34.465Z,39.05
2023-04-19T06:48:02.721Z,39.69
2023-04-19T06:50:31.049Z,40.30
2023-04-19T06:52:59.224Z,41.22
2023-04-19T06:55:27.379Z,41.72
2023-04-19T06:57:55.260Z,42.10
2023-04-19T07:00:23.421Z,41.65
2023-04-19T07:02:52.494Z,41.66
2023-04-19T07:05:20.722Z,42.29
2023-04-19T07:07:49.104Z,43.54
2023-04-19T07:10:17.669Z,43.47
2023-04-19T07:12:45.937Z,43.08
2023-04-19T07:15:13.811Z,43.29
2023-04-19T07:17:42.216Z,43.64
2023-04-19T07:20:11.009Z,43.29
2023-04-19T07:22:39.236Z,42.20
2023-04-19T07:25:07.781Z,42.63
2023-04-19T07:27:36.087Z,42.55
2023-04-19T07:30:04.367Z,42.95
2023-04-19T07:32:33.666Z,43.07
2023-04-19T07:35:02.042Z,42.77
2023-04-19T07:37:30.752Z,42.30
2023-04-19T07:39:58.812Z,42.90
2023-04-19T07:42:26.685Z,42.51
2023-04-19T07:44:56.477Z,42.13
2023-04-19T07:47:24.402Z,41.56
2023-04-19T07:49:53.650Z,42.99
2023-04-19T07:52:21.490Z,42.66
2023-04-19T07:54:49.761Z,42.85
2023-04-19T07:57:17.769Z,43.44
2023-04-19T07:59:45.849Z,44.08
2023-04-19T08:02:14.022Z,43.48
2023-04-19T08:04:42.365Z,43.83
2023-04-19T08:07:10.716Z,43.53
2023-04-19T08:09:39.879Z,43.30
2023-04-19T08:12:07.939Z,43.68
2023-04-19T08:14:47.556Z,44.11
2023-04-19T08:17:26.246Z,44.16
2023-04-19T08:19:56.115Z,44.29
2023-04-19T08:22:24.171Z,43.26
2023-04-19T08:24:52.089Z,43.08
2023-04-19T08:27:21.953Z,43.66
2023-04-19T08:29:50.082Z,43.75
2023-04-19T08:32:18.105Z,44.06
2023-04-19T08:34:46.532Z,44.39
2023-04-19T08:37:14.442Z,44.29
2023-04-19T08:39:42.281Z,43.52
2023-04-19T08:42:18.399Z,44.76
2023-04-19T08:45:23.298Z,44.52
2023-04-19T08:47:59.710Z,44.27
2023-04-19T08:50:35.956Z,44.00
2023-04-19T08:55:50.967Z,44.22
2023-04-19T09:01:05.333Z,44.55
2023-04-19T09:03:40.888Z,44.50
2023-04-19T09:06:12.628Z,44.20
2023-04-19T09:08:41.130Z,44.36
2023-04-19T09:11:09.064Z,44.91
2023-04-19T09:13:38.552Z,44.69
2023-04-19T09:16:08.179Z,44.64
2023-04-19T09:19:02.394Z,44.41
2023-04-19T09:21:36.493Z,44.24
2023-04-19T09:24:04.652Z,43.26
2023-04-19T09:26:33.217Z,43.40
2023-04-19T09:29:07.839Z,44.02
2023-04-19T09:31:50.967Z,44.43
2023-04-19T09:34:20.051Z,42.89
2023-04-19T09:36:52.413Z,42.58
2023-04-19T09:39:32.137Z,42.30
2023-04-19T09:42:00.680Z,41.60
2023-04-19T09:46:59.397Z,41.71
2023-04-19T09:49:41.652Z,42.68
2023-04-19T09:52:15.549Z,42.62
2023-04-19T09:54:43.467Z,41.83
2023-04-19T09:57:11.649Z,41.85
2023-04-19T09:59:39.510Z,42.38
2023-04-19T10:02:07.485Z,41.90
2023-04-19T10:04:54.613Z,42.61
2023-04-19T10:07:30.877Z,42.59
2023-04-19T10:10:11.847Z,40.69
2023-04-19T10:13:10.916Z,42.01
2023-04-19T10:18:09.192Z,42.10
2023-04-19T10:21:00.210Z,42.94
2023-04-19T10:23:29.204Z,43.09
2023-04-19T10:25:57.991Z,42.04
2023-04-19T10:28:28.896Z,42.29
2023-04-19T10:31:04.388Z,42.85
2023-04-19T10:33:36.743Z,42.55
2023-04-19T10:36:07.455Z,43.44
2023-04-19T10:38:37.329Z,43.19
2023-04-19T10:41:12.361Z,42.23
2023-04-19T10:44:08.982Z,42.73
2023-04-19T10:46:38.086Z,42.18
2023-04-19T10:49:06.429Z,42.57
2023-04-19T10:51:36.620Z,42.11
2023-04-19T10:54:23.302Z,42.85
2023-04-19T10:56:59.761Z,42.47
2023-04-19T10:59:29.961Z,42.25
2023-04-19T11:01:59.840Z,41.78
2023-04-19T11:04:31.304Z,42.45
2023-04-19T11:07:04.029Z,41.95
2023-04-19T11:09:34.701Z,43.10
2023-04-19T11:12:10.090Z,43.85
2023-04-19T11:14:39.993Z,43.59
2023-04-19T11:17:21.371Z,43.62
2023-04-19T11:19:59.105Z,43.43
2023-04-19T11:22:33.366Z,42.82
2023-04-19T11:25:20.127Z,43.00
2023-04-19T11:27:49.731Z,44.17
2023-04-19T11:30:20.276Z,44.40
2023-04-19T11:32:55.815Z,44.60
2023-04-19T11:35:25.149Z,44.87
2023-04-19T11:37:53.684Z,44.89
2023-04-19T11:40:22.434Z,45.06
2023-04-19T11:43:01.578Z,45.10
2023-04-19T11:45:33.489Z,45.68
2023-04-19T11:48:05.406Z,45.74
2023-04-19T11:50:40.903Z,45.38
2023-04-19T11:53:18.298Z,46.36
2023-04-19T11:55:53.385Z,46.51
2023-04-19T11:58:40.052Z,46.75
2023-04-19T12:01:09.289Z,46.31
2023-04-19T12:03:48.068Z,46.62
2023-04-19T12:06:27.171Z,47.39
2023-04-19T12:08:56.048Z,47.33
2023-04-19T12:11:26.839Z,46.57
2023-04-19T12:14:15.055Z,46.41
2023-04-19T12:16:44.928Z,47.06
2023-04-19T12:19:18.388Z,46.85
2023-04-19T12:21:46.975Z,47.18
2023-04-19T12:24:15.812Z,47.38
2023-04-19T12:26:57.044Z,47.71
2023-04-19T12:29:25.470Z,48.27
2023-04-19T12:31:53.501Z,48.21
2023-04-19T12:34:21.470Z,48.75
2023-04-19T12:36:49.392Z,49.52
2023-04-19T12:39:17.740Z,49.85
2023-04-19T12:41:48.596Z,50.33
2023-04-19T12:44:16.566Z,50.62
2023-04-19T12:46:44.461Z,51.21
2023-04-19T12:49:12.313Z,51.31
2023-04-19T12:51:40.629Z,51.56
2023-04-19T12:54:08.433Z,52.05
2023-04-19T12:56:36.607Z,52.51
2023-04-19T12:59:04.511Z,52.73
2023-04-19T13:01:32.982Z,53.07
2023-04-19T13:04:01.173Z,53.41
2023-04-19T13:06:29.617Z,53.75
2023-04-19T13:09:01.056Z,53.91
2023-04-19T13:11:29.785Z,54.05
2023-04-19T13:13:57.601Z,53.76
2023-04-19T13:16:25.577Z,53.83
2023-04-19T13:18:54.828Z,54.11
2023-04-19T13:21:23.872Z,54.24
2023-04-19T13:23:51.879Z,54.23
2023-04-19T13:26:19.863Z,54.56
2023-04-19T13:28:47.881Z,54.84
2023-04-19T13:31:15.864Z,55.01
2023-04-19T13:33:44.027Z,54.93
2023-04-19T13:36:12.055Z,55.35
2023-04-19T13:38:40.076Z,55.49
2023-04-19T13:41:07.929Z,55.88
2023-04-19T13:43:35.838Z,56.38
2023-04-19T13:46:03.778Z,56.87
2023-04-19T13:48:32.284Z,57.38
2023-04-19T13:51:00.168Z,57.46
2023-04-19T13:53:29.262Z,57.96
2023-04-19T13:55:57.367Z,58.00
2023-04-19T13:58:25.235Z,58.50
2023-04-19T14:00:53.972Z,59.00
2023-04-19T14:03:22.970Z,59.31
2023-04-19T14:05:51.156Z,59.71
2023-04-19T14:08:19.266Z,59.67
2023-04-19T14:10:47.450Z,59.36
2023-04-19T14:13:16.156Z,59.19
2023-04-19T14:15:44.368Z,59.20
2023-04-19T14:18:12.317Z,59.16
2023-04-19T14:20:40.616Z,58.70
2023-04-19T14:23:08.382Z,58.34
2023-04-19T14:25:36.860Z,58.51
2023-04-19T14:28:04.832Z,58.93
2023-04-19T14:30:33.121Z,58.65
2023-04-19T14:33:01.075Z,59.14
2023-04-19T14:35:29.245Z,59.15
2023-04-19T14:37:57.222Z,59.10
2023-04-19T14:40:25.395Z,59.41
2023-04-19T14:42:53.464Z,59.35
2023-04-19T14:45:21.387Z,59.45
2023-04-19T14:47:49.322Z,59.65
2023-04-19T14:50:17.373Z,59.71
2023-04-19T14:52:45.409Z,59.82
2023-04-19T14:55:13.476Z,59.67
2023-04-19T14:57:41.427Z,59.92
2023-04-19T15:00:10.225Z,59.53
2023-04-19T15:02:38.325Z,59.35
2023-04-19T15:05:07.440Z,59.04
2023-04-19T15:07:35.508Z,58.69
2023-04-19T15:10:03.971Z,58.17
2023-04-19T15:12:32.014Z,57.96
2023-04-19T15:14:59.976Z,57.32
2023-04-19T15:17:28.082Z,57.39
2023-04-19T15:19:56.144Z,57.45
2023-04-19T15:22:24.008Z,57.01
2023-04-19T15:24:52.142Z,56.35
2023-04-19T15:27:20.051Z,55.91
2023-04-19T15:29:48.182Z,55.72
2023-04-19T15:32:16.160Z,55.72
2023-04-19T15:34:44.456Z,55.35
2023-04-19T15:37:12.765Z,55.09
2023-04-19T15:39:40.852Z,54.94
2023-04-19T15:42:08.815Z,54.25
2023-04-19T15:44:36.731Z,54.63
2023-04-19T15:47:04.906Z,54.78
2023-04-19T15:49:33.271Z,54.72
2023-04-19T15:52:01.175Z,54.73
2023-04-19T15:54:29.691Z,54.53
2023-04-19T15:56:58.226Z,54.88
2023-04-19T15:59:26.372Z,54.65
2023-04-19T16:03:13.961Z,54.57
2023-04-19T16:05:42.332Z,54.98
2023-04-19T16:08:11.777Z,55.02
2023-04-19T16:10:39.997Z,55.17
2023-04-19T16:13:07.997Z,55.45
2023-04-19T16:15:36.038Z,55.44
2023-04-19T16:18:04.078Z,55.43
2023-04-19T16:20:32.084Z,55.46
2023-04-19T16:23:03.376Z,54.95
2023-04-19T16:25:31.470Z,54.77
2023-04-19T16:27:59.740Z,54.38
2023-04-19T16:30:27.715Z,54.59
2023-04-19T16:32:56.247Z,54.58
2023-04-19T16:35:24.898Z,54.38
2023-04-19T16:37:55.186Z,54.76
2023-04-19T16:40:24.646Z,54.63
2023-04-19T16:42:52.611Z,54.90
2023-04-19T16:45:20.761Z,54.92
2023-04-19T16:47:48.820Z,55.16
2023-04-19T16:50:16.817Z,55.34
2023-04-19T16:52:44.656Z,55.65
2023-04-19T16:55:12.504Z,55.58
2023-04-19T16:57:40.412Z,55.65
2023-04-19T17:00:09.925Z,55.78
2023-04-19T17:02:38.183Z,56.02
2023-04-19T17:05:07.236Z,55.90
2023-04-19T17:07:35.395Z,56.17
2023-04-19T17:10:03.711Z,56.31
2023-04-19T17:12:31.875Z,56.54
2023-04-19T17:14:59.781Z,56.64
2023-04-19T17:17:27.788Z,56.70
2023-04-19T17:19:56.930Z,57.13
2023-04-19T17:22:24.987Z,57.12
2023-04-19T17:24:54.321Z,57.15
2023-04-19T17:27:22.155Z,57.03
2023-04-19T17:29:50.123Z,57.07
2023-04-19T17:32:18.097Z,56.95
2023-04-19T17:34:46.309Z,57.49
2023-04-19T17:37:14.209Z,57.58
2023-04-19T17:39:42.575Z,57.70
2023-04-19T17:42:10.573Z,58.02
2023-04-19T17:44:38.461Z,58.57
2023-04-19T17:47:06.703Z,58.08
2023-04-19T17:49:35.169Z,57.37
2023-04-19T17:52:03.074Z,56.81
2023-04-19T17:54:31.037Z,56.85
2023-04-19T17:57:02.693Z,56.79
2023-04-19T17:59:31.380Z,56.85
2023-04-19T18:01:59.489Z,56.70
2023-04-19T18:04:27.653Z,56.80
2023-04-19T18:06:56.113Z,56.96
2023-04-19T18:09:24.081Z,57.08
2023-04-19T18:11:52.067Z,57.50
2023-04-19T18:14:20.016Z,57.49
2023-04-19T18:16:48.123Z,57.78
2023-04-19T18:19:16.680Z,57.86
2023-04-19T18:21:44.845Z,57.71
2023-04-19T18:24:13.532Z,57.83
2023-04-19T18:26:41.813Z,57.68
2023-04-19T18:29:10.318Z,57.46
2023-04-19T18:31:38.200Z,57.23
2023-04-19T18:34:06.134Z,56.87
2023-04-19T18:36:34.167Z,56.49
2023-04-19T18:39:02.009Z,56.33
2023-04-19T18:41:30.154Z,55.92
2023-04-19T18:46:34.871Z,55.21
2023-04-19T18:49:02.853Z,55.25
2023-04-19T18:51:31.424Z,55.32
2023-04-19T18:53:59.313Z,55.54
2023-04-19T18:57:04.499Z,55.48
2023-04-19T18:59:16.022Z,55.73
2023-04-19T19:01:46.244Z,56.00
2023-04-19T19:04:37.162Z,56.33
2023-04-19T19:07:18.000Z,56.39
2023-04-19T19:09:57.134Z,56.83
2023-04-19T19:12:25.555Z,57.06
2023-04-19T19:14:53.368Z,57.38
2023-04-19T19:17:21.425Z,57.43
2023-04-19T19:19:49.334Z,57.76
2023-04-19T19:22:26.254Z,57.82
2023-04-19T19:24:57.122Z,58.16
2023-04-19T19:27:24.933Z,58.33
2023-04-19T19:29:53.189Z,58.35
2023-04-19T19:32:21.385Z,58.67
2023-04-19T19:37:21.198Z,59.07
2023-04-19T19:39:49.709Z,59.31
2023-04-19T19:42:18.204Z,59.46
2023-04-19T19:44:46.258Z,59.68
2023-04-19T19:47:16.982Z,60.00
2023-04-19T19:50:11.557Z,60.12
2023-04-19T19:52:33.546Z,60.36
2023-04-19T19:55:01.759Z,60.60
2023-04-19T19:58:16.380Z,60.66
2023-04-19T20:05:21.555Z,61.25
2023-04-19T20:08:00.436Z,61.26
2023-04-19T20:10:30.051Z,61.32
2023-04-19T20:12:58.601Z,61.37
2023-04-19T20:15:26.718Z,61.42
2023-04-19T20:17:54.652Z,61.57
2023-04-19T20:20:22.554Z,61.70
2023-04-19T20:22:50.401Z,61.74
2023-04-19T20:25:18.596Z,61.70
2023-04-19T20:27:46.404Z,61.81
2023-04-19T20:30:14.374Z,61.98
2023-04-19T20:32:43.079Z,62.02
2023-04-19T20:35:12.240Z,62.05
2023-04-19T20:37:40.833Z,61.91
2023-04-19T20:40:13.650Z,61.38
2023-04-19T20:42:42.206Z,60.97
2023-04-19T20:45:10.625Z,60.15
2023-04-19T20:47:38.971Z,59.83
2023-04-19T20:50:08.096Z,59.19
2023-04-19T20:52:36.181Z,59.10
2023-04-19T20:55:05.001Z,58.61
2023-04-19T20:57:33.316Z,58.42
2023-04-19T21:00:01.221Z,58.32
2023-04-19T21:02:29.456Z,57.99
2023-04-19T21:04:57.613Z,57.57
2023-04-19T21:07:25.680Z,57.55
2023-04-19T21:09:53.534Z,57.26
2023-04-19T21:12:21.421Z,56.83
2023-04-19T21:14:51.052Z,56.93
2023-04-19T21:17:19.764Z,56.70
2023-04-19T21:19:47.548Z,56.47
2023-04-19T21:22:15.500Z,56.32
2023-04-19T21:24:43.420Z,56.35
2023-04-19T21:27:11.339Z,56.52
2023-04-19T21:29:39.153Z,56.53
2023-04-19T21:32:07.226Z,56.40
2023-04-19T21:34:35.292Z,56.21
2023-04-19T21:37:03.618Z,56.16
2023-04-19T21:39:31.722Z,56.34
2023-04-19T21:41:59.610Z,56.21
2023-04-19T21:44:27.501Z,56.20
2023-04-19T21:46:55.403Z,55.98
2023-04-19T21:49:23.444Z,56.05
2023-04-19T21:51:51.278Z,55.80
2023-04-19T21:54:26.999Z,55.75
2023-04-19T21:57:02.369Z,55.84
2023-04-19T21:59:34.217Z,55.86
2023-04-19T22:02:02.283Z,55.83
2023-04-19T22:04:31.053Z,55.80
2023-04-19T22:07:02.381Z,55.81
2023-04-19T22:09:31.231Z,55.68
2023-04-19T22:12:00.239Z,55.82
2023-04-19T22:14:28.443Z,55.81
2023-04-19T22:16:57.210Z,55.78
2023-04-19T22:19:25.132Z,55.45
2023-04-19T22:21:53.588Z,55.38
2023-04-19T22:24:22.385Z,55.36
2023-04-19T22:26:51.192Z,55.67
2023-04-19T22:29:19.587Z,55.50
2023-04-19T22:31:47.702Z,55.23
2023-04-19T22:34:15.878Z,55.04
2023-04-19T22:36:43.895Z,55.06
2023-04-19T22:39:11.877Z,55.06
2023-04-19T22:41:39.612Z,55.01
2023-04-19T22:44:07.497Z,55.19
2023-04-19T22:46:36.839Z,55.05
2023-04-19T22:49:04.838Z,54.92
2023-04-19T22:51:34.159Z,54.87
2023-04-19T22:54:03.093Z,54.55
2023-04-19T22:56:31.090Z,54.65
2023-04-19T22:58:59.802Z,54.46
2023-04-19T23:01:27.893Z,54.41
2023-04-19T23:03:55.839Z,54.48
2023-04-19T23:06:23.748Z,54.48
2023-04-19T23:08:52.124Z,54.48
2023-04-19T23:11:24.832Z,54.42
2023-04-19T23:13:53.982Z,54.36
2023-04-19T23:16:24.704Z,54.47
2023-04-19T23:18:52.710Z,54.15
2023-04-19T23:21:20.724Z,54.13
2023-04-19T23:23:49.964Z,54.03
2023-04-19T23:26:17.806Z,54.11
2023-04-19T23:28:45.852Z,54.26
2023-04-19T23:31:14.030Z,54.05
2023-04-19T23:33:41.912Z,54.00
2023-04-19T23:36:09.896Z,53.91
2023-04-19T23:38:37.991Z,53.97
2023-04-19T23:41:06.039Z,54.08
2023-04-19T23:43:33.937Z,53.96
2023-04-19T23:46:02.520Z,53.98
2023-04-19T23:48:31.121Z,53.83
2023-04-19T23:50:58.883Z,53.98
2023-04-19T23:53:26.810Z,54.15
2023-04-19T23:55:54.571Z,54.05
2023-04-19T23:58:22.365Z,53.85
